createdAt,value
2017-02-28T04:50:15.071Z,4.27
2017-02-28T04:50:55.383Z,4.4
2017-02-28T04:51:35.775Z,4.49
2017-02-28T04:52:16.215Z,4.49
2017-02-28T04:52:56.718Z,4.39
2017-02-28T04:53:37.116Z,4.45
2017-02-28T04:54:17.554Z,4.39
2017-02-28T04:54:57.999Z,4.36
2017-02-28T04:55:38.384Z,4.21
2017-02-28T04:56:18.857Z,4.24
2017-02-28T04:56:59.324Z,4.25
2017-02-28T04:57:39.797Z,4.2
2017-02-28T04:58:20.286Z,4.24
2017-02-28T04:59:00.678Z,4.2
2017-02-28T04:59:41.114Z,4.18
2017-02-28T05:00:21.559Z,4.18
2017-02-28T05:01:01.986Z,4.16
2017-02-28T05:01:42.532Z,4.13
2017-02-28T05:02:22.988Z,4.16
2017-02-28T05:03:03.469Z,4.1
2017-02-28T05:03:43.905Z,4.12
2017-02-28T05:04:24.312Z,4.16
2017-02-28T05:05:04.722Z,4.16
2017-02-28T05:05:45.158Z,4.2
2017-02-28T05:06:25.589Z,4.2
2017-02-28T05:07:06.123Z,4.21
2017-02-28T05:07:46.616Z,4.13
2017-02-28T05:08:27.031Z,4.1
2017-02-28T05:09:07.423Z,4.16
2017-02-28T05:09:47.849Z,4.16
2017-02-28T05:10:28.272Z,4.09
2017-02-28T05:11:08.742Z,4.2
2017-02-28T05:11:49.338Z,4.13
2017-02-28T05:12:29.807Z,4.13
2017-02-28T05:13:10.223Z,4.21
2017-02-28T05:13:50.666Z,4.16
2017-02-28T05:14:31.116Z,4.13
2017-02-28T05:15:11.583Z,4.16
2017-02-28T05:15:52.057Z,4.16
2017-02-28T05:16:32.472Z,4.14
2017-02-28T17:47:36.035Z,5.54
2017-02-28T17:48:16.477Z,5.69
2017-02-28T17:48:57.033Z,5.58
2017-02-28T17:49:37.441Z,5.59
2017-02-28T17:50:17.904Z,5.56
2017-02-28T17:50:58.413Z,5.64
2017-02-28T17:51:38.841Z,5.51
2017-02-28T17:52:19.305Z,5.54
2017-02-28T17:52:59.656Z,5.58
2017-02-28T17:53:40.203Z,5.59
2017-02-28T17:54:20.581Z,5.49
2017-02-28T17:55:00.968Z,5.47
2017-02-28T17:55:41.427Z,5.58
2017-02-28T17:56:22.069Z,5.52
2017-02-28T17:57:02.518Z,5.52
2017-02-28T17:57:43.210Z,5.49
2017-02-28T17:58:23.611Z,5.55
2017-02-28T17:59:04.053Z,5.54
2017-02-28T17:59:44.565Z,5.56
2017-02-28T18:00:24.976Z,5.54
2017-02-28T18:01:05.371Z,5.52
2017-02-28T18:01:45.822Z,5.65
2017-02-28T18:02:26.274Z,5.58
2017-02-28T18:03:06.820Z,5.62
2017-02-28T18:03:47.168Z,5.58
2017-02-28T18:04:27.522Z,5.67
2017-02-28T18:05:07.935Z,5.55
2017-02-28T18:05:48.380Z,5.62
2017-02-28T18:06:28.872Z,5.67
2017-02-28T18:07:09.318Z,5.69
2017-02-28T18:07:49.832Z,5.64
2017-02-28T18:08:30.235Z,5.65
2017-02-28T18:09:10.842Z,5.65
2017-02-28T18:09:51.150Z,5.55
2017-02-28T18:10:31.575Z,5.62
2017-02-28T18:11:12.104Z,5.61
2017-02-28T18:11:52.717Z,5.58
2017-02-28T18:12:33.344Z,5.58
2017-02-28T18:13:13.805Z,5.58
2017-02-28T18:13:54.186Z,5.59
2017-02-28T18:14:34.679Z,5.55
2017-02-28T18:15:15.088Z,5.54
2017-02-28T18:15:55.448Z,5.52
2017-02-28T18:16:35.918Z,5.62
2017-02-28T18:17:16.341Z,5.58
2017-02-28T18:17:56.758Z,5.52
2017-02-28T18:18:37.508Z,5.43
2017-02-28T18:19:17.928Z,5.47
2017-02-28T18:19:58.365Z,5.46
2017-02-28T18:20:38.855Z,5.49
2017-02-28T18:21:19.230Z,5.4
2017-02-28T18:21:59.778Z,5.46
2017-02-28T18:22:40.215Z,5.43
2017-02-28T18:23:20.688Z,5.4
2017-02-28T18:24:01.134Z,5.34
2017-02-28T18:24:41.554Z,5.37
2017-02-28T18:25:22.013Z,5.28
2017-02-28T18:26:02.426Z,5.26
2017-02-28T18:26:42.808Z,5.28
2017-02-28T18:27:23.285Z,5.25
2017-02-28T18:28:03.687Z,5.26
2017-02-28T18:28:44.053Z,5.29
2017-02-28T18:29:24.508Z,5.28
2017-02-28T18:30:04.935Z,5.22
2017-02-28T18:30:45.364Z,5.2
2017-02-28T18:31:25.828Z,5.15
2017-02-28T18:32:06.253Z,5.18
2017-02-28T18:32:46.728Z,5.22
2017-02-28T18:33:27.165Z,5.12
2017-02-28T18:34:07.563Z,5.19
2017-02-28T18:34:48.037Z,5.1
2017-02-28T18:35:28.468Z,5.07
2017-02-28T18:36:08.910Z,5.04
2017-02-28T18:36:49.358Z,5.16
2017-02-28T18:37:29.852Z,5.13
2017-02-28T18:38:10.288Z,5.12
2017-02-28T18:38:50.781Z,5.15
2017-02-28T18:39:31.245Z,5.18
2017-02-28T18:40:11.653Z,5.22
2017-02-28T18:40:52.104Z,5.29
2017-02-28T18:41:32.586Z,5.16
2017-02-28T18:42:13.206Z,5.26
2017-02-28T18:42:53.681Z,5.33
2017-02-28T18:43:34.105Z,5.28
2017-02-28T18:44:14.495Z,5.26
2017-02-28T18:44:54.931Z,5.34
2017-02-28T18:45:35.353Z,5.37
2017-02-28T18:46:15.832Z,5.37
2017-02-28T18:46:56.221Z,5.34
2017-02-28T18:47:36.675Z,5.37
2017-02-28T18:48:17.096Z,5.36
2017-02-28T18:48:57.557Z,5.36
2017-02-28T18:49:38.039Z,5.33
2017-02-28T18:50:18.473Z,5.37
2017-02-28T18:50:58.872Z,5.36
2017-02-28T18:51:39.286Z,5.44
2017-02-28T18:52:19.897Z,5.41
2017-02-28T18:53:00.409Z,5.4
2017-02-28T18:53:40.899Z,5.46
2017-02-28T18:54:21.315Z,5.41
2017-02-28T18:55:01.836Z,5.38
2017-02-28T18:55:42.212Z,5.44
2017-02-28T18:56:22.671Z,5.4
2017-02-28T18:57:03.249Z,5.38
2017-02-28T18:57:43.746Z,5.43
2017-02-28T18:58:24.129Z,5.41
2017-02-28T18:59:04.596Z,5.41
2017-02-28T18:59:45.067Z,5.4
2017-02-28T19:00:25.408Z,5.41
2017-02-28T19:01:05.908Z,5.4
2017-02-28T19:01:46.369Z,5.38
2017-02-28T19:02:26.806Z,5.4
2017-02-28T19:03:07.240Z,5.44
2017-02-28T19:03:47.711Z,5.44
2017-02-28T19:04:28.112Z,5.43
2017-02-28T19:05:08.562Z,5.4
2017-02-28T19:05:48.942Z,5.44
2017-02-28T19:06:29.485Z,5.4
2017-02-28T19:07:09.937Z,5.4
2017-02-28T19:07:50.382Z,5.43
2017-02-28T19:08:30.781Z,5.43
2017-02-28T19:09:11.275Z,5.4
2017-02-28T19:09:51.720Z,5.4
2017-02-28T19:10:32.176Z,5.4
2017-02-28T19:11:12.611Z,5.43
2017-02-28T19:11:52.981Z,5.43
2017-02-28T19:12:33.470Z,5.33
2017-02-28T19:13:13.912Z,5.41
2017-02-28T19:13:54.400Z,5.43
2017-02-28T19:14:34.876Z,5.4
2017-02-28T19:15:15.307Z,5.43
2017-02-28T19:15:55.767Z,5.4
2017-02-28T19:16:36.160Z,5.44
2017-02-28T19:17:16.570Z,5.43
2017-02-28T19:17:57.022Z,5.43
2017-02-28T19:18:37.446Z,5.38
2017-02-28T19:19:17.948Z,5.4
2017-02-28T19:19:58.452Z,5.4
2017-02-28T19:20:38.835Z,5.38
2017-02-28T19:21:19.356Z,5.41
2017-02-28T19:21:59.683Z,5.41
2017-02-28T19:22:40.191Z,5.43
2017-02-28T19:23:21.059Z,5.38
2017-02-28T19:24:01.513Z,5.34
2017-02-28T19:24:41.912Z,5.41
2017-02-28T19:25:22.378Z,5.36
2017-02-28T19:26:02.835Z,5.34
2017-02-28T19:26:43.281Z,5.33
2017-02-28T19:27:23.739Z,5.26
2017-02-28T19:28:04.239Z,5.36
2017-02-28T19:28:44.723Z,5.28
2017-02-28T19:29:25.236Z,5.26
2017-02-28T19:30:05.699Z,5.25
2017-02-28T19:30:46.507Z,5.22
2017-02-28T19:31:26.935Z,5.23
2017-02-28T19:32:07.333Z,5.23
2017-02-28T19:32:47.706Z,5.25
2017-02-28T19:33:28.161Z,5.26
2017-02-28T19:34:08.769Z,5.28
2017-02-28T19:34:49.613Z,5.33
2017-02-28T19:35:29.846Z,5.38
2017-02-28T19:36:10.310Z,5.41
2017-02-28T19:36:50.778Z,5.38
2017-02-28T19:37:31.190Z,5.36
2017-02-28T19:38:11.642Z,5.37
2017-02-28T19:38:52.057Z,5.4
2017-02-28T19:39:32.513Z,5.44
2017-02-28T19:40:12.931Z,5.43
2017-02-28T19:40:53.364Z,5.38
2017-02-28T19:41:33.812Z,5.47
2017-02-28T19:42:14.289Z,5.47
2017-02-28T19:42:54.672Z,5.43
2017-02-28T19:43:35.134Z,5.43
2017-02-28T19:44:15.577Z,5.41
2017-02-28T19:44:56.005Z,5.43
2017-02-28T19:45:36.584Z,5.41
2017-02-28T19:46:17.037Z,5.4
2017-02-28T19:46:57.455Z,5.41
2017-02-28T19:47:38.100Z,5.44
2017-02-28T19:48:18.693Z,5.37
2017-02-28T19:48:59.217Z,5.41
2017-02-28T19:49:39.673Z,5.43
2017-02-28T19:50:20.121Z,5.41
2017-02-28T19:51:00.587Z,5.4
2017-02-28T19:51:41.029Z,5.33
2017-02-28T19:52:21.449Z,5.44
2017-02-28T19:53:01.870Z,5.44
2017-02-28T19:53:42.343Z,5.41
2017-02-28T19:54:22.953Z,5.43
2017-02-28T19:55:03.467Z,5.36
2017-02-28T19:55:43.835Z,5.37
2017-02-28T19:56:24.234Z,5.38
2017-02-28T19:57:04.729Z,5.34
2017-02-28T19:59:17.908Z,5.4
2017-02-28T19:59:58.384Z,5.36
2017-02-28T20:00:38.756Z,5.23
2017-02-28T20:01:19.165Z,5.33
2017-02-28T20:01:59.580Z,5.33
2017-02-28T20:02:40.078Z,5.31
2017-02-28T20:03:20.503Z,5.29
2017-02-28T20:04:01.084Z,5.36
2017-02-28T20:04:41.500Z,5.33
2017-02-28T20:05:21.956Z,5.31
2017-02-28T20:06:02.397Z,5.37
2017-02-28T20:06:42.929Z,5.29
2017-02-28T20:07:23.306Z,5.25
2017-02-28T20:08:03.823Z,5.36
2017-02-28T20:08:44.195Z,5.28
2017-02-28T20:09:24.673Z,5.18
2017-02-28T20:10:05.006Z,5.34
2017-02-28T20:10:45.984Z,5.28
2017-02-28T20:11:26.408Z,5.23
2017-02-28T20:12:06.917Z,5.26
2017-02-28T20:12:47.328Z,5.22
2017-02-28T20:13:27.869Z,5.22
2017-02-28T20:14:08.228Z,5.26
2017-02-28T20:14:48.666Z,5.29
2017-02-28T20:15:29.087Z,5.19
2017-02-28T20:16:09.469Z,5.31
2017-02-28T20:16:49.910Z,5.25
2017-02-28T20:17:30.315Z,5.15
2017-02-28T20:18:10.694Z,5.19
2017-02-28T20:18:51.196Z,5.15
2017-02-28T20:19:31.573Z,5.13
2017-02-28T20:20:11.960Z,5.15
2017-02-28T20:20:52.437Z,5.12
2017-02-28T20:21:32.918Z,5.13
2017-02-28T20:22:13.347Z,5.13
2017-02-28T20:22:53.766Z,5.15
2017-02-28T20:23:34.229Z,5.18
2017-02-28T20:24:14.674Z,5.12
2017-02-28T20:24:55.121Z,5.12
2017-02-28T20:25:35.503Z,5.16
2017-02-28T20:26:15.982Z,5.07
2017-02-28T20:26:56.400Z,5.1
2017-02-28T20:27:37.040Z,5.08
2017-02-28T20:28:17.414Z,5.12
2017-02-28T20:28:57.767Z,5.05
2017-02-28T20:29:38.472Z,5.1
2017-02-28T20:30:18.793Z,5.08
2017-02-28T20:30:59.194Z,5.02
2017-02-28T20:31:39.635Z,5.07
2017-02-28T20:32:20.006Z,5.13
2017-02-28T20:33:00.679Z,5.1
2017-02-28T20:33:41.601Z,5.01
2017-02-28T20:34:21.973Z,5
2017-02-28T20:35:02.529Z,5.04
2017-02-28T20:35:43.054Z,5.04
2017-02-28T20:36:23.927Z,5.1
2017-02-28T20:37:04.362Z,5
2017-02-28T20:37:44.836Z,4.98
2017-02-28T20:38:25.308Z,5.13
2017-02-28T20:39:05.729Z,5.07
2017-02-28T20:39:46.214Z,5.01
2017-02-28T20:40:26.921Z,4.97
2017-02-28T20:41:07.284Z,5.02
2017-02-28T20:41:47.693Z,5.07
2017-02-28T20:42:28.127Z,4.95
2017-02-28T20:43:08.610Z,5.01
2017-02-28T20:43:49.171Z,4.92
2017-02-28T20:44:29.684Z,4.94
2017-02-28T20:45:10.162Z,5
2017-02-28T20:45:50.551Z,4.92
2017-02-28T20:46:30.976Z,4.97
2017-02-28T20:47:11.406Z,4.94
2017-02-28T20:47:51.812Z,4.9
2017-02-28T20:48:32.368Z,4.9
2017-02-28T20:49:12.911Z,4.9
2017-02-28T20:49:53.307Z,4.94
2017-02-28T20:50:33.794Z,4.87
2017-02-28T20:51:14.182Z,4.87
2017-02-28T20:51:54.586Z,4.87
2017-02-28T20:52:35.032Z,4.86
2017-02-28T20:53:15.417Z,4.79
2017-02-28T20:53:55.870Z,4.9
2017-02-28T20:54:36.353Z,4.83
2017-02-28T20:55:16.801Z,4.84
2017-02-28T20:55:57.295Z,4.78
2017-02-28T22:01:45.306Z,4.49
2017-02-28T22:02:25.772Z,4.57
2017-02-28T22:03:10.183Z,4.63
2017-02-28T22:03:54.567Z,4.68
2017-02-28T22:04:35.034Z,4.67
2017-02-28T22:05:15.574Z,4.7
2017-02-28T22:05:56.011Z,4.67
2017-02-28T22:06:36.374Z,4.64
2017-02-28T22:07:16.771Z,4.57
2017-02-28T22:07:57.467Z,4.58
2017-02-28T22:08:38.283Z,4.5
2017-02-28T22:09:18.733Z,4.45
2017-02-28T22:09:59.234Z,4.4
2017-02-28T22:10:39.672Z,4.36
2017-02-28T22:11:20.128Z,4.32
2017-02-28T22:12:00.571Z,4.32
2017-02-28T22:12:40.989Z,4.2
2017-02-28T22:13:21.467Z,4.16
2017-02-28T22:14:01.974Z,4.27
2017-02-28T22:14:42.485Z,4.2
2017-02-28T22:15:22.907Z,4.22
2017-02-28T22:16:03.357Z,4.18
2017-02-28T22:16:43.729Z,4.24
2017-02-28T22:17:24.184Z,4.18
2017-02-28T22:18:04.601Z,4.14
2017-02-28T22:18:45.043Z,4.22
2017-02-28T22:19:25.502Z,4.18
2017-02-28T22:20:05.902Z,4.27
2017-02-28T22:20:46.397Z,4.2
2017-02-28T22:21:26.856Z,4.25
2017-02-28T22:22:07.387Z,4.2
2017-02-28T22:22:47.849Z,4.25
2017-02-28T22:23:28.317Z,4.2
2017-02-28T22:24:08.795Z,4.25
2017-02-28T22:24:49.201Z,4.22
2017-02-28T22:25:29.730Z,4.24
2017-02-28T22:26:10.199Z,4.27
2017-02-28T22:26:50.744Z,4.28
2017-02-28T22:27:31.140Z,4.18
2017-02-28T22:28:11.649Z,4.2
2017-02-28T22:28:52.106Z,4.22
2017-02-28T22:29:32.546Z,4.28
2017-02-28T22:30:13.824Z,4.27
2017-02-28T22:30:53.492Z,4.27
2017-02-28T22:31:34.075Z,4.28
2017-02-28T22:32:14.479Z,4.25
2017-02-28T22:32:54.925Z,4.27
2017-02-28T22:33:35.367Z,4.34
2017-02-28T22:34:15.752Z,4.34
2017-02-28T22:34:56.170Z,4.36
2017-02-28T22:35:36.865Z,4.38
2017-02-28T22:36:17.286Z,4.34
2017-02-28T22:36:57.776Z,4.34
2017-02-28T22:37:38.142Z,4.34
2017-02-28T22:38:18.613Z,4.38
2017-02-28T22:38:59.016Z,4.28
2017-02-28T22:39:39.451Z,4.43
2017-02-28T22:40:19.962Z,4.39
2017-02-28T22:41:00.341Z,4.34
2017-02-28T22:41:40.807Z,4.3
2017-02-28T22:42:21.323Z,4.31
2017-02-28T22:43:01.720Z,4.25
2017-02-28T22:43:42.130Z,4.18
2017-02-28T22:44:22.571Z,4.18
2017-02-28T22:45:03.039Z,4.24
2017-02-28T22:45:43.503Z,4.24
2017-02-28T22:46:23.950Z,4.21
2017-02-28T22:47:04.396Z,4.2
2017-02-28T22:47:44.818Z,4.16
2017-02-28T22:48:25.247Z,4.14
2017-02-28T22:49:05.680Z,4.25
2017-02-28T22:49:46.050Z,4.13
2017-02-28T22:50:26.507Z,4.16
2017-02-28T22:51:06.958Z,4.18
2017-02-28T22:51:47.334Z,4.12
2017-02-28T22:52:27.861Z,4.14
2017-02-28T22:53:08.296Z,4.14
2017-02-28T22:53:48.762Z,4.14
2017-02-28T22:54:29.152Z,4.04
2017-02-28T22:55:09.581Z,4.18
2017-02-28T22:55:49.987Z,4.09
2017-02-28T22:56:30.474Z,4
2017-02-28T22:57:10.887Z,4.04
2017-02-28T22:57:51.272Z,3.92
2017-02-28T22:58:31.739Z,4.06
2017-02-28T22:59:12.166Z,3.99
2017-02-28T22:59:52.574Z,3.96
2017-02-28T23:00:32.999Z,4
2017-02-28T23:01:13.430Z,3.86
2017-02-28T23:01:53.871Z,3.88
2017-02-28T23:02:34.331Z,3.91
2017-02-28T23:03:14.712Z,3.99
2017-02-28T23:03:55.201Z,4
2017-02-28T23:04:35.628Z,3.94
2017-02-28T23:05:16.042Z,3.89
2017-02-28T23:05:56.519Z,3.95
2017-02-28T23:06:36.924Z,3.94
2017-02-28T23:07:17.339Z,3.89
2017-02-28T23:07:57.721Z,3.86
2017-02-28T23:08:38.165Z,3.89
2017-02-28T23:09:18.659Z,3.92
2017-02-28T23:09:59.066Z,3.94
2017-02-28T23:10:39.453Z,3.99
2017-02-28T23:11:20.049Z,3.91
2017-02-28T23:12:00.345Z,3.92
2017-02-28T23:12:40.902Z,4.02
2017-02-28T23:13:21.462Z,3.94
2017-02-28T23:14:01.862Z,3.91
2017-02-28T23:14:42.296Z,3.88
2017-02-28T23:15:22.741Z,3.92
2017-02-28T23:16:03.205Z,3.88
2017-02-28T23:16:43.666Z,3.91
2017-02-28T23:17:24.262Z,3.92
2017-02-28T23:18:04.711Z,3.89
2017-02-28T23:18:45.121Z,3.94
2017-02-28T23:19:25.609Z,3.89
2017-02-28T23:20:06.005Z,3.92
2017-02-28T23:20:46.396Z,3.92
2017-02-28T23:21:26.881Z,3.89
2017-02-28T23:22:07.277Z,4.03
2017-02-28T23:22:47.737Z,3.95
2017-02-28T23:23:28.166Z,4.04
2017-02-28T23:24:08.622Z,3.96
2017-02-28T23:24:48.979Z,4.1
2017-02-28T23:25:29.410Z,4.03
2017-02-28T23:26:09.919Z,4.14
2017-02-28T23:26:50.383Z,4.06
2017-02-28T23:27:30.780Z,4.16
2017-02-28T23:28:11.218Z,4.18
2017-02-28T23:28:51.671Z,4.21
2017-02-28T23:29:32.104Z,4.14
2017-02-28T23:30:12.564Z,4.21
2017-02-28T23:30:53.033Z,4.14
2017-02-28T23:31:33.420Z,4.28
2017-02-28T23:32:13.819Z,4.24
2017-02-28T23:32:54.234Z,4.25
2017-02-28T23:33:34.664Z,4.32
2017-02-28T23:34:15.045Z,4.36
2017-02-28T23:34:55.438Z,4.34
2017-02-28T23:35:36.087Z,4.28
2017-02-28T23:36:16.844Z,4.2
2017-02-28T23:36:57.385Z,4.39
2017-02-28T23:37:37.940Z,4.36
2017-02-28T23:38:18.448Z,4.31
2017-02-28T23:38:58.907Z,4.25
2017-02-28T23:39:40.272Z,4.24
2017-02-28T23:40:20.477Z,4.2
2017-02-28T23:41:01.199Z,4.16
2017-02-28T23:41:41.405Z,4.2
2017-02-28T23:42:21.806Z,4.18
2017-02-28T23:43:02.540Z,4.16
2017-02-28T23:43:43.036Z,4.13
2017-02-28T23:44:23.445Z,4.12
2017-02-28T23:45:03.884Z,4.02
2017-02-28T23:45:44.347Z,4.02
2017-02-28T23:46:24.750Z,4
2017-02-28T23:47:05.297Z,3.94
2017-02-28T23:47:45.698Z,4.12
2017-02-28T23:48:26.183Z,3.95
2017-02-28T23:49:06.581Z,4.03
2017-02-28T23:49:47.036Z,3.95
2017-02-28T23:50:27.386Z,4.09
2017-02-28T23:51:07.995Z,4.03
2017-02-28T23:51:48.494Z,4.04
2017-02-28T23:52:28.969Z,4.06
2017-02-28T23:53:09.358Z,4.06
2017-02-28T23:53:49.921Z,4
2017-02-28T23:54:30.460Z,4.09
2017-02-28T23:55:10.820Z,3.92
2017-02-28T23:55:51.194Z,3.96
2017-02-28T23:56:31.657Z,4.07
2017-02-28T23:57:12.222Z,3.96
2017-02-28T23:57:52.754Z,4.12
2017-02-28T23:58:33.586Z,4.04
2017-02-28T23:59:14.016Z,4.04
2017-02-28T23:59:54.401Z,4.09
